Time;durP1;ratioP1;P1;durP2;ratioP2;P2;SDS_P1;SDS_P2;PMS_P1;PMS_P2;Temp;Humidity;BMP_temperature;BMP_pressure;BME280_temperature;BME280_humidity;BME280_pressure;Samples;Min_cycle;Max_cycle;Signal;HPM_P1;HPM_P2
2020/12/19 00:01:48;;;;;;;39.50;29.90;;;5.70;99.90;;;;;;5116936;27;20453;-75
2020/12/19 00:04:14;;;;;;;38.47;30.87;;;5.70;99.90;;;;;;5114911;27;20492;-74
2020/12/19 00:06:43;;;;;;;38.00;31.70;;;5.60;99.90;;;;;;5122390;27;20444;-75
2020/12/19 00:09:09;;;;;;;38.47;32.50;;;5.60;99.90;;;;;;5117169;27;20453;-75
2020/12/19 00:11:37;;;;;;;36.10;30.73;;;5.60;99.90;;;;;;5117345;27;20453;-75
2020/12/19 00:14:04;;;;;;;38.80;32.13;;;5.50;99.90;;;;;;5115115;27;20492;-75
2020/12/19 00:16:30;;;;;;;43.23;30.77;;;5.50;99.90;;;;;;5110959;27;20459;-75
2020/12/19 00:18:57;;;;;;;36.43;31.90;;;5.40;99.90;;;;;;5111364;27;20465;-75
2020/12/19 00:21:31;;;;;;;42.87;33.17;;;5.40;99.90;;;;;;5114364;27;20974;-75
2020/12/19 00:23:57;;;;;;;42.73;32.13;;;5.30;99.90;;;;;;5110137;27;21384;-75
2020/12/19 00:26:32;;;;;;;40.20;32.30;;;5.20;99.90;;;;;;5111411;27;20479;-75
2020/12/19 00:28:58;;;;;;;51.60;31.77;;;5.20;99.90;;;;;;5115136;27;20453;-75
2020/12/19 00:31:26;;;;;;;45.83;35.03;;;5.20;99.90;;;;;;5115648;27;20475;-75
2020/12/19 00:33:53;;;;;;;47.30;34.73;;;5.20;99.90;;;;;;5115834;27;20476;-75
2020/12/19 00:36:20;;;;;;;43.17;32.50;;;5.10;99.90;;;;;;5113701;27;20966;-74
2020/12/19 00:38:49;;;;;;;42.10;34.37;;;5.10;99.90;;;;;;5112789;27;20495;-75
2020/12/19 00:41:17;;;;;;;44.33;34.10;;;5.10;99.90;;;;;;5113447;27;20505;-75
2020/12/19 00:43:45;;;;;;;41.60;33.27;;;5.00;99.90;;;;;;5111932;27;20532;-74
2020/12/19 00:46:14;;;;;;;44.33;32.43;;;5.00;99.90;;;;;;5115733;27;20485;-75
2020/12/19 00:48:42;;;;;;;43.13;34.83;;;5.00;99.90;;;;;;5113788;27;20448;-75
2020/12/19 00:51:12;;;;;;;41.17;32.50;;;5.00;99.90;;;;;;5114285;27;20992;-75
2020/12/19 00:53:40;;;;;;;42.03;31.27;;;5.00;99.90;;;;;;5115023;27;20457;-75
2020/12/19 00:56:06;;;;;;;39.93;32.80;;;5.00;99.90;;;;;;5116619;27;20463;-75
2020/12/19 00:58:32;;;;;;;45.90;32.10;;;4.90;99.90;;;;;;5116043;27;20488;-75
2020/12/19 01:00:58;;;;;;;39.23;30.33;;;4.80;99.90;;;;;;5116323;27;20449;-75
2020/12/19 01:03:26;;;;;;;41.17;32.47;;;4.70;99.90;;;;;;5114909;27;20488;-75
2020/12/19 01:05:53;;;;;;;44.50;33.00;;;4.70;99.90;;;;;;5116313;27;21048;-75
2020/12/19 01:08:19;;;;;;;41.83;32.10;;;4.70;99.90;;;;;;5116111;27;20459;-75
2020/12/19 01:10:45;;;;;;;54.07;30.50;;;4.70;99.90;;;;;;5116268;27;20513;-75
2020/12/19 01:13:11;;;;;;;41.83;31.47;;;4.80;99.90;;;;;;5118453;27;20475;-75
2020/12/19 01:15:38;;;;;;;42.40;31.70;;;4.80;99.90;;;;;;5115988;27;20464;-75
2020/12/19 01:18:06;;;;;;;41.93;32.40;;;4.80;99.90;;;;;;5115741;27;20460;-75
2020/12/19 01:20:32;;;;;;;40.93;31.40;;;4.80;99.90;;;;;;5116641;27;20464;-75
2020/12/19 01:22:59;;;;;;;34.53;30.70;;;4.90;99.90;;;;;;5115679;27;20745;-75
2020/12/19 01:25:27;;;;;;;36.83;29.17;;;5.00;99.90;;;;;;5114489;27;20485;-75
2020/12/19 01:27:54;;;;;;;36.80;30.43;;;5.00;99.90;;;;;;5118172;27;20481;-75
2020/12/19 01:30:21;;;;;;;36.33;31.43;;;5.10;99.90;;;;;;5117891;27;20484;-75
2020/12/19 01:32:49;;;;;;;34.90;28.73;;;5.10;99.90;;;;;;5115703;27;20853;-75
2020/12/19 01:35:16;;;;;;;39.87;28.83;;;5.10;99.90;;;;;;5115397;27;20463;-75
2020/12/19 01:37:43;;;;;;;36.70;29.43;;;5.10;99.90;;;;;;5118207;27;20452;-75
2020/12/19 01:40:10;;;;;;;36.27;29.90;;;5.10;99.90;;;;;;5115608;27;20455;-75
2020/12/19 01:42:37;;;;;;;42.87;31.33;;;5.10;99.90;;;;;;5118260;27;20461;-75
2020/12/19 01:45:04;;;;;;;41.93;31.10;;;5.10;99.90;;;;;;5115459;27;21068;-75
2020/12/19 01:47:33;;;;;;;33.50;29.03;;;5.10;99.90;;;;;;5112882;27;20460;-75
2020/12/19 01:50:01;;;;;;;37.13;30.13;;;5.10;99.90;;;;;;5113889;27;21038;-75
2020/12/19 01:52:30;;;;;;;39.13;29.77;;;5.10;99.90;;;;;;5115154;28;20464;-75
2020/12/19 01:54:58;;;;;;;39.13;29.13;;;5.00;99.90;;;;;;5114509;27;20461;-75
2020/12/19 01:57:29;;;;;;;38.53;28.93;;;5.00;99.90;;;;;;5114046;28;20452;-75
2020/12/19 01:59:55;;;;;;;41.63;30.43;;;5.10;99.90;;;;;;5119282;28;20490;-75
2020/12/19 02:02:24;;;;;;;35.23;28.57;;;5.10;99.90;;;;;;5119713;28;20472;-75
2020/12/19 02:04:51;;;;;;;49.83;28.60;;;5.10;99.90;;;;;;5119203;28;20584;-75
2020/12/19 02:07:18;;;;;;;35.87;28.43;;;5.00;99.90;;;;;;5119130;27;20464;-75
2020/12/19 02:09:44;;;;;;;39.30;29.40;;;5.00;99.90;;;;;;5119505;28;20457;-75
2020/12/19 02:12:11;;;;;;;33.23;29.13;;;5.00;99.90;;;;;;5120298;28;20466;-75
2020/12/19 02:14:38;;;;;;;39.03;30.03;;;5.00;99.90;;;;;;5119730;28;20459;-75
2020/12/19 02:17:07;;;;;;;36.83;27.83;;;4.90;99.90;;;;;;5119192;28;20456;-75
2020/12/19 02:19:34;;;;;;;46.23;29.47;;;5.00;99.90;;;;;;5119015;28;20468;-75
2020/12/19 02:22:01;;;;;;;39.07;29.17;;;4.90;99.90;;;;;;5119964;28;20506;-75
2020/12/19 02:24:28;;;;;;;40.23;28.47;;;4.90;99.90;;;;;;5120259;28;20495;-76
2020/12/19 02:26:56;;;;;;;32.20;28.30;;;4.90;99.90;;;;;;5118569;28;20834;-75
2020/12/19 02:29:24;;;;;;;37.17;29.27;;;4.80;99.90;;;;;;5118611;28;20472;-76
2020/12/19 02:31:52;;;;;;;33.20;29.10;;;4.80;99.90;;;;;;5117899;27;20470;-75
2020/12/19 02:34:19;;;;;;;32.73;29.37;;;4.80;99.90;;;;;;5117536;28;20463;-75
2020/12/19 02:36:46;;;;;;;33.10;29.80;;;4.70;99.90;;;;;;5119961;28;20460;-75
2020/12/19 02:39:13;;;;;;;37.30;28.60;;;4.70;99.90;;;;;;5119717;28;20517;-75
2020/12/19 02:41:42;;;;;;;35.83;29.13;;;4.60;99.90;;;;;;5119127;28;20460;-75
2020/12/19 02:44:12;;;;;;;38.40;28.80;;;4.60;99.90;;;;;;5118985;27;20473;-75
2020/12/19 02:46:39;;;;;;;34.23;30.50;;;4.60;99.90;;;;;;5119724;28;20471;-75
2020/12/19 02:49:06;;;;;;;36.83;29.93;;;4.60;99.90;;;;;;5121639;28;20475;-75
2020/12/19 02:51:32;;;;;;;44.20;32.60;;;4.60;99.90;;;;;;5122970;28;20468;-75
2020/12/19 02:53:58;;;;;;;49.03;33.13;;;4.60;99.90;;;;;;5124604;28;20699;-75
2020/12/19 02:56:25;;;;;;;38.33;30.57;;;4.70;99.90;;;;;;5122568;28;20943;-75
2020/12/19 02:58:52;;;;;;;40.50;30.87;;;4.70;99.90;;;;;;5124567;28;20484;-75
2020/12/19 03:01:18;;;;;;;33.30;29.47;;;4.70;99.90;;;;;;5121114;28;20452;-75
2020/12/19 03:03:45;;;;;;;36.73;30.13;;;4.80;99.90;;;;;;5119468;28;20457;-75
2020/12/19 03:06:11;;;;;;;36.87;30.90;;;4.80;99.90;;;;;;5121314;27;20492;-75
2020/12/19 03:08:39;;;;;;;41.23;28.47;;;4.80;99.90;;;;;;5121338;27;20456;-75
2020/12/19 03:11:06;;;;;;;37.93;28.90;;;4.90;99.90;;;;;;5123510;27;20457;-75
2020/12/19 03:13:32;;;;;;;38.30;28.37;;;5.00;99.90;;;;;;5122518;27;20966;-75
2020/12/19 03:16:00;;;;;;;33.80;28.50;;;5.00;99.90;;;;;;5121258;27;20463;-75
2020/12/19 03:18:26;;;;;;;42.90;31.90;;;5.00;99.90;;;;;;5121156;27;20472;-75
2020/12/19 03:20:53;;;;;;;41.67;28.67;;;5.00;99.90;;;;;;5123090;27;20471;-75
2020/12/19 03:23:20;;;;;;;43.33;31.03;;;5.00;99.90;;;;;;5120914;27;20457;-75
2020/12/19 03:25:47;;;;;;;40.40;32.10;;;4.90;99.90;;;;;;5118655;27;20835;-75
2020/12/19 03:28:13;;;;;;;38.73;30.40;;;4.90;99.90;;;;;;5116777;27;20468;-75
2020/12/19 03:30:39;;;;;;;39.20;30.87;;;4.90;99.90;;;;;;5116723;27;20971;-75
2020/12/19 03:33:08;;;;;;;39.37;29.17;;;4.90;99.90;;;;;;5123592;27;20480;-75
2020/12/19 03:35:36;;;;;;;40.17;32.30;;;4.90;99.90;;;;;;5119336;27;20776;-75
2020/12/19 03:38:03;;;;;;;40.83;30.80;;;5.00;99.90;;;;;;5120568;27;20472;-75
2020/12/19 03:40:29;;;;;;;34.37;30.60;;;5.00;99.90;;;;;;5116881;27;20526;-75
2020/12/19 03:42:55;;;;;;;46.00;29.80;;;5.00;99.90;;;;;;5120102;27;20465;-75
2020/12/19 03:45:22;;;;;;;34.30;28.97;;;5.00;99.90;;;;;;5115202;27;20487;-75
2020/12/19 03:47:48;;;;;;;39.70;29.23;;;4.90;99.90;;;;;;5120253;27;20463;-75
2020/12/19 03:50:17;;;;;;;37.23;28.13;;;4.90;99.90;;;;;;5117024;27;20452;-75
2020/12/19 03:52:44;;;;;;;53.83;30.70;;;4.90;99.90;;;;;;5119423;27;20453;-75
2020/12/19 03:55:11;;;;;;;35.80;29.40;;;4.90;99.90;;;;;;5113238;27;20494;-75
2020/12/19 03:57:38;;;;;;;39.83;29.93;;;5.00;99.90;;;;;;5122114;27;20461;-75
2020/12/19 04:00:08;;;;;;;44.20;30.57;;;4.90;99.90;;;;;;5118129;27;20488;-75
2020/12/19 04:02:35;;;;;;;42.87;29.60;;;5.00;99.90;;;;;;5119382;27;20464;-75
2020/12/19 04:05:02;;;;;;;34.83;28.90;;;5.00;99.90;;;;;;5122657;27;20472;-75
2020/12/19 04:07:30;;;;;;;35.00;29.00;;;5.00;99.90;;;;;;5123674;27;20467;-75
2020/12/19 04:09:56;;;;;;;40.13;31.00;;;5.10;99.90;;;;;;5125136;27;20468;-75
2020/12/19 04:12:22;;;;;;;42.53;27.50;;;5.10;99.90;;;;;;5117906;27;20456;-75
2020/12/19 04:14:49;;;;;;;34.03;28.77;;;5.10;99.90;;;;;;5123909;27;20481;-75
2020/12/19 04:17:15;;;;;;;41.90;30.73;;;5.10;99.90;;;;;;5122962;27;20457;-75
2020/12/19 04:19:42;;;;;;;42.40;30.70;;;5.20;99.90;;;;;;5122167;27;20464;-75
2020/12/19 04:22:09;;;;;;;38.43;29.83;;;5.10;99.90;;;;;;5121257;27;20513;-75
2020/12/19 04:24:36;;;;;;;44.20;30.37;;;5.20;99.90;;;;;;5126336;27;20553;-75
2020/12/19 04:27:02;;;;;;;36.43;29.27;;;5.20;99.90;;;;;;5122253;27;20457;-76
2020/12/19 04:29:30;;;;;;;50.43;32.57;;;5.10;99.90;;;;;;5120361;27;20454;-75
2020/12/19 04:31:57;;;;;;;38.13;29.10;;;5.20;99.90;;;;;;5121591;27;20460;-75
2020/12/19 04:34:25;;;;;;;48.50;31.67;;;5.20;99.90;;;;;;5117418;27;20452;-75
2020/12/19 04:36:52;;;;;;;36.17;30.70;;;5.20;99.90;;;;;;5116670;27;20457;-75
2020/12/19 04:39:18;;;;;;;42.47;31.57;;;5.10;99.90;;;;;;5125620;27;20954;-75
2020/12/19 04:41:47;;;;;;;36.03;30.50;;;5.10;99.90;;;;;;5115528;27;20453;-75
2020/12/19 04:44:16;;;;;;;41.37;32.10;;;5.10;99.90;;;;;;5122744;27;20576;-75
2020/12/19 04:46:43;;;;;;;40.90;31.43;;;5.10;99.90;;;;;;5113372;27;20475;-76
2020/12/19 04:49:11;;;;;;;43.07;32.90;;;5.10;99.90;;;;;;5116200;27;20525;-75
2020/12/19 04:51:38;;;;;;;41.20;31.17;;;5.10;99.90;;;;;;5116057;27;20449;-76
2020/12/19 04:54:05;;;;;;;41.97;30.50;;;5.10;99.90;;;;;;5121205;27;20468;-75
2020/12/19 04:56:33;;;;;;;38.07;32.57;;;5.10;99.90;;;;;;5116552;27;21366;-75
2020/12/19 04:59:03;;;;;;;41.80;30.20;;;5.10;99.90;;;;;;5113713;27;20782;-75
2020/12/19 05:01:30;;;;;;;38.03;31.90;;;5.20;99.90;;;;;;5114936;27;21992;-76
2020/12/19 05:03:58;;;;;;;33.07;29.00;;;5.20;99.90;;;;;;5119181;27;20457;-75
2020/12/19 05:06:26;;;;;;;36.70;29.30;;;5.20;99.90;;;;;;5117808;27;20485;-75
2020/12/19 05:08:54;;;;;;;38.00;30.70;;;5.20;99.90;;;;;;5118267;27;20460;-75
2020/12/19 05:11:20;;;;;;;44.00;31.23;;;5.20;99.90;;;;;;5116697;27;20467;-75
2020/12/19 05:13:47;;;;;;;39.73;31.20;;;5.20;99.90;;;;;;5117299;27;20810;-75
2020/12/19 05:16:18;;;;;;;36.80;31.30;;;5.20;99.90;;;;;;5115595;27;20472;-75
2020/12/19 05:18:44;;;;;;;41.23;30.87;;;5.20;99.90;;;;;;5118625;27;20469;-75
2020/12/19 05:21:12;;;;;;;38.03;29.80;;;5.20;99.90;;;;;;5120581;27;20457;-75
2020/12/19 05:23:40;;;;;;;48.37;30.53;;;5.20;99.90;;;;;;5118977;27;20509;-76
2020/12/19 05:26:08;;;;;;;38.17;29.83;;;5.20;99.90;;;;;;5115806;27;20504;-75
2020/12/19 05:28:37;;;;;;;35.67;29.87;;;5.20;99.90;;;;;;5115761;27;21021;-75
2020/12/19 05:31:04;;;;;;;34.80;30.30;;;5.20;99.90;;;;;;5122871;27;20832;-75
2020/12/19 05:33:36;;;;;;;35.43;28.63;;;5.20;99.90;;;;;;5117557;27;20481;-75
2020/12/19 05:36:03;;;;;;;36.77;31.00;;;5.20;99.90;;;;;;5117108;27;20948;-75
2020/12/19 05:38:31;;;;;;;42.03;30.50;;;5.20;99.90;;;;;;5114728;27;20452;-75
2020/12/19 05:40:58;;;;;;;38.17;30.30;;;5.30;99.90;;;;;;5119862;27;20516;-75
2020/12/19 05:43:25;;;;;;;41.87;30.93;;;5.30;99.90;;;;;;5123360;27;20555;-75
2020/12/19 05:45:52;;;;;;;44.63;31.43;;;5.20;99.90;;;;;;5122104;27;20537;-75
2020/12/19 05:48:19;;;;;;;40.63;31.27;;;5.20;99.90;;;;;;5119694;27;20965;-75
2020/12/19 05:50:46;;;;;;;39.90;31.90;;;5.20;99.90;;;;;;5118515;27;20490;-75
2020/12/19 05:53:14;;;;;;;48.90;31.70;;;5.30;99.90;;;;;;5120199;28;20821;-75
2020/12/19 05:55:43;;;;;;;38.37;30.30;;;5.40;99.90;;;;;;5120777;28;20468;-75
2020/12/19 05:58:10;;;;;;;43.30;36.40;;;5.30;99.90;;;;;;5122367;28;20460;-75
2020/12/19 06:00:38;;;;;;;39.13;30.13;;;5.30;99.90;;;;;;5100067;28;20465;-75
2020/12/19 06:03:07;;;;;;;43.00;33.43;;;5.40;99.90;;;;;;5105337;28;20468;-75
2020/12/19 06:05:34;;;;;;;42.53;31.17;;;5.30;99.90;;;;;;5103725;28;20860;-75
2020/12/19 06:08:02;;;;;;;37.10;30.70;;;5.30;99.90;;;;;;5099129;28;20817;-75
2020/12/19 06:10:28;;;;;;;40.20;33.70;;;5.30;99.90;;;;;;5101790;28;20817;-75
2020/12/19 06:13:03;;;;;;;42.37;33.17;;;5.20;99.90;;;;;;5099831;28;20481;-75
2020/12/19 06:15:41;;;;;;;44.70;33.00;;;5.20;99.90;;;;;;5103197;28;20540;-75
2020/12/19 06:18:14;;;;;;;42.43;33.53;;;5.10;99.90;;;;;;5098766;28;20479;-75
2020/12/19 06:20:40;;;;;;;37.90;33.00;;;5.00;99.90;;;;;;5106704;28;20457;-75
2020/12/19 06:23:15;;;;;;;39.40;32.73;;;5.00;99.90;;;;;;5102807;28;20496;-75
2020/12/19 06:25:45;;;;;;;43.17;35.10;;;5.00;99.90;;;;;;5100328;28;20484;-75
2020/12/19 06:28:12;;;;;;;46.93;33.73;;;5.00;99.90;;;;;;5101117;28;20458;-75
2020/12/19 06:30:39;;;;;;;47.53;32.30;;;5.00;99.90;;;;;;5098510;28;20538;-75
2020/12/19 06:33:22;;;;;;;42.17;32.40;;;5.10;99.90;;;;;;5098318;28;20493;-75
2020/12/19 06:35:50;;;;;;;36.20;29.40;;;5.10;99.90;;;;;;5109290;28;20461;-75
2020/12/19 06:38:44;;;;;;;48.27;29.50;;;5.20;99.90;;;;;;5098913;28;20453;-75
2020/12/19 06:41:41;;;;;;;36.60;30.87;;;5.30;99.90;;;;;;5106224;28;20449;-75
2020/12/19 06:44:11;;;;;;;39.23;29.33;;;5.30;99.90;;;;;;5104974;28;20460;-75
2020/12/19 06:46:38;;;;;;;36.50;28.60;;;5.20;99.90;;;;;;5102182;28;20485;-75
2020/12/19 06:49:33;;;;;;;35.07;31.13;;;5.30;99.90;;;;;;5100982;28;20842;-75
2020/12/19 06:52:08;;;;;;;37.67;32.60;;;5.30;99.90;;;;;;5107176;28;20462;-75
2020/12/19 06:54:37;;;;;;;34.10;28.00;;;5.30;99.90;;;;;;5106777;28;20472;-75
2020/12/19 06:57:05;;;;;;;41.23;31.70;;;5.30;99.90;;;;;;5106280;28;20464;-75
2020/12/19 06:59:33;;;;;;;36.00;30.70;;;5.30;99.90;;;;;;5114719;27;20483;-75
2020/12/19 07:02:18;;;;;;;39.00;32.33;;;5.50;99.90;;;;;;5122130;27;20565;-75
2020/12/19 07:04:45;;;;;;;35.37;30.17;;;5.50;99.90;;;;;;5123157;27;20464;-75
2020/12/19 07:07:13;;;;;;;37.07;30.90;;;5.50;99.90;;;;;;5120103;27;20940;-75
2020/12/19 07:09:39;;;;;;;37.10;30.13;;;5.50;99.90;;;;;;5119994;27;20485;-75
2020/12/19 07:12:30;;;;;;;40.03;28.97;;;5.40;99.90;;;;;;5123351;27;20456;-75
2020/12/19 07:14:57;;;;;;;36.03;29.90;;;5.50;99.90;;;;;;5119845;27;20461;-75
2020/12/19 07:17:23;;;;;;;34.00;28.63;;;5.50;99.90;;;;;;5120605;27;20851;-75
2020/12/19 07:19:58;;;;;;;35.60;29.80;;;5.60;99.90;;;;;;5123693;27;20459;-75
2020/12/19 07:22:25;;;;;;;37.40;30.87;;;5.50;99.90;;;;;;5122845;27;20487;-75
2020/12/19 07:24:51;;;;;;;38.93;29.90;;;5.50;99.90;;;;;;5125919;27;20483;-75
2020/12/19 07:27:20;;;;;;;38.67;30.53;;;5.40;99.90;;;;;;5123577;27;20465;-75
2020/12/19 07:29:46;;;;;;;38.67;31.40;;;5.40;99.90;;;;;;5123321;27;20457;-75
2020/12/19 07:32:13;;;;;;;33.77;29.93;;;5.40;99.90;;;;;;5118531;27;20481;-75
2020/12/19 07:34:40;;;;;;;37.80;32.00;;;5.20;99.90;;;;;;5122905;27;20469;-75
2020/12/19 07:37:07;;;;;;;37.97;32.60;;;5.30;99.90;;;;;;5125373;27;20464;-75
2020/12/19 07:39:33;;;;;;;42.40;32.20;;;5.20;99.90;;;;;;5119059;27;20887;-75
2020/12/19 07:42:02;;;;;;;36.23;31.67;;;5.20;99.90;;;;;;5118912;27;21145;-75
2020/12/19 07:44:30;;;;;;;42.23;34.90;;;5.20;99.90;;;;;;5118068;27;20453;-75
2020/12/19 07:47:01;;;;;;;39.00;32.60;;;5.20;99.90;;;;;;5113542;27;20457;-75
2020/12/19 07:49:33;;;;;;;46.33;33.97;;;5.30;99.90;;;;;;5115431;27;20456;-75
2020/12/19 07:52:08;;;;;;;47.83;33.83;;;5.30;99.90;;;;;;5117184;27;20454;-75
2020/12/19 07:54:35;;;;;;;48.13;34.73;;;5.40;99.90;;;;;;5118168;27;20456;-75
2020/12/19 07:57:03;;;;;;;50.03;36.43;;;5.40;99.90;;;;;;5114432;27;20508;-75
2020/12/19 07:59:30;;;;;;;43.40;34.10;;;5.40;99.90;;;;;;5122080;27;21022;-75
2020/12/19 08:02:00;;;;;;;44.00;35.00;;;5.40;99.90;;;;;;5117057;27;20453;-75
2020/12/19 08:04:27;;;;;;;55.50;36.40;;;5.50;99.90;;;;;;5118350;27;20465;-75
2020/12/19 08:06:53;;;;;;;47.77;36.03;;;5.50;99.90;;;;;;5118496;27;20488;-75
2020/12/19 08:09:21;;;;;;;49.87;38.40;;;5.60;99.90;;;;;;5120518;27;20516;-75
2020/12/19 08:11:49;;;;;;;44.00;35.13;;;5.60;99.90;;;;;;5122910;27;20460;-75
2020/12/19 08:14:16;;;;;;;53.47;36.17;;;5.60;99.90;;;;;;5125139;27;20452;-75
2020/12/19 08:16:45;;;;;;;50.60;36.43;;;5.60;99.90;;;;;;5118388;27;20460;-75
2020/12/19 08:19:17;;;;;;;56.63;37.87;;;5.70;99.90;;;;;;5124134;27;20464;-75
2020/12/19 08:21:45;;;;;;;57.23;37.90;;;5.70;99.90;;;;;;5122016;27;21007;-75
2020/12/19 08:24:12;;;;;;;56.20;37.40;;;5.70;99.90;;;;;;5119834;27;20552;-75
2020/12/19 08:26:39;;;;;;;49.90;36.27;;;5.80;99.90;;;;;;5117414;27;21003;-75
2020/12/19 08:29:07;;;;;;;56.70;35.30;;;5.80;99.90;;;;;;5115930;27;20541;-75
2020/12/19 08:31:35;;;;;;;56.00;36.97;;;5.90;99.90;;;;;;5116682;27;20464;-76
2020/12/19 08:34:05;;;;;;;65.03;37.27;;;6.00;99.90;;;;;;5117014;27;20480;-75
2020/12/19 08:36:32;;;;;;;47.43;36.97;;;6.00;99.90;;;;;;5116721;27;20469;-75
2020/12/19 08:39:18;;;;;;;49.80;37.47;;;6.00;99.90;;;;;;5117079;27;20457;-75
2020/12/19 08:41:45;;;;;;;48.93;37.43;;;6.10;99.90;;;;;;5115747;27;20461;-75
2020/12/19 08:44:26;;;;;;;52.87;38.13;;;6.10;99.90;;;;;;5122478;27;20940;-75
2020/12/19 08:47:03;;;;;;;53.83;37.40;;;6.20;99.90;;;;;;5121621;27;20990;-76
2020/12/19 08:49:30;;;;;;;52.33;36.90;;;6.30;99.90;;;;;;5116110;27;20449;-75
2020/12/19 08:51:58;;;;;;;44.20;35.13;;;6.30;99.90;;;;;;5121134;27;20452;-75
2020/12/19 08:54:26;;;;;;;45.73;35.27;;;6.40;99.90;;;;;;5117193;27;20468;-76
2020/12/19 08:56:53;;;;;;;42.53;33.80;;;6.40;99.90;;;;;;5119053;27;20959;-76
2020/12/19 08:59:28;;;;;;;41.43;35.67;;;6.50;99.90;;;;;;5115430;27;20899;-75
2020/12/19 09:01:56;;;;;;;50.93;33.40;;;6.60;99.90;;;;;;5120373;27;20508;-76
2020/12/19 09:04:23;;;;;;;48.77;36.67;;;6.70;99.90;;;;;;5117837;27;20547;-76
2020/12/19 09:06:54;;;;;;;43.57;35.37;;;6.80;99.90;;;;;;5114480;27;20560;-76
2020/12/19 09:09:28;;;;;;;48.70;34.70;;;6.90;99.90;;;;;;5117528;27;20461;-76
2020/12/19 09:12:07;;;;;;;44.40;34.50;;;6.90;99.90;;;;;;5119239;27;20455;-76
2020/12/19 09:14:35;;;;;;;52.73;36.77;;;7.00;99.90;;;;;;5113646;27;20485;-75
2020/12/19 09:17:02;;;;;;;49.60;35.33;;;7.10;99.90;;;;;;5121570;27;20457;-76
2020/12/19 09:19:29;;;;;;;50.77;38.50;;;7.10;99.90;;;;;;5121701;27;20790;-76
2020/12/19 09:21:58;;;;;;;41.63;34.60;;;7.20;99.90;;;;;;5119924;27;20460;-76
2020/12/19 09:24:26;;;;;;;53.50;37.30;;;7.20;99.90;;;;;;5120682;27;20466;-76
2020/12/19 09:26:54;;;;;;;41.23;35.17;;;7.30;99.90;;;;;;5116832;27;20492;-76
2020/12/19 09:29:21;;;;;;;43.00;35.27;;;7.40;99.90;;;;;;5116860;27;20464;-76
2020/12/19 09:31:48;;;;;;;48.03;35.80;;;7.40;99.90;;;;;;5116534;27;20564;-76
2020/12/19 09:34:15;;;;;;;44.40;36.60;;;7.50;99.90;;;;;;5113148;27;20476;-76
2020/12/19 09:36:42;;;;;;;59.70;38.40;;;7.50;99.90;;;;;;5119675;27;20456;-76
2020/12/19 09:39:10;;;;;;;54.30;37.23;;;7.50;99.90;;;;;;5118165;27;20506;-76
2020/12/19 09:41:36;;;;;;;51.30;36.30;;;7.60;99.90;;;;;;5120062;27;20457;-76
2020/12/19 09:44:03;;;;;;;51.37;38.80;;;7.60;99.90;;;;;;5116024;27;20833;-76
2020/12/19 09:46:29;;;;;;;47.43;37.63;;;7.70;99.90;;;;;;5116953;27;20487;-76
2020/12/19 09:48:56;;;;;;;55.50;39.20;;;7.80;99.90;;;;;;5115320;27;20456;-76
2020/12/19 09:51:22;;;;;;;70.73;38.50;;;7.90;99.90;;;;;;5113262;27;20481;-76
2020/12/19 09:53:49;;;;;;;47.23;36.40;;;7.90;99.90;;;;;;5116385;27;20790;-76
2020/12/19 09:56:17;;;;;;;45.20;35.20;;;8.00;99.90;;;;;;5113414;28;20457;-76
2020/12/19 09:58:45;;;;;;;42.23;34.90;;;8.10;99.90;;;;;;5121670;28;21060;-76
2020/12/19 10:01:12;;;;;;;41.63;34.63;;;8.10;99.90;;;;;;5113217;28;21004;-76
2020/12/19 10:03:38;;;;;;;51.07;36.87;;;8.20;99.90;;;;;;5113274;28;20533;-76
2020/12/19 10:06:05;;;;;;;45.57;36.30;;;8.20;99.90;;;;;;5114920;28;20932;-76
2020/12/19 10:08:32;;;;;;;41.10;35.70;;;8.30;99.90;;;;;;5117845;28;20465;-76
2020/12/19 10:10:59;;;;;;;41.90;34.93;;;8.40;99.90;;;;;;5118408;28;20542;-76
2020/12/19 10:13:27;;;;;;;45.07;35.60;;;8.40;99.90;;;;;;5122018;28;20460;-76
2020/12/19 10:15:55;;;;;;;42.10;35.50;;;8.50;99.90;;;;;;5118234;27;20493;-76
2020/12/19 10:18:22;;;;;;;37.40;33.70;;;8.50;99.90;;;;;;5124069;27;20474;-76
2020/12/19 10:20:48;;;;;;;38.43;34.33;;;8.60;99.90;;;;;;5126249;27;20465;-76
2020/12/19 10:23:14;;;;;;;37.93;32.93;;;8.70;99.90;;;;;;5117116;27;20452;-76
2020/12/19 10:25:41;;;;;;;36.50;32.70;;;8.80;99.90;;;;;;5124510;27;20495;-76
2020/12/19 10:28:07;;;;;;;38.97;34.43;;;8.80;99.90;;;;;;5122136;27;20466;-76
2020/12/19 10:30:34;;;;;;;41.67;34.17;;;8.90;99.90;;;;;;5123121;27;20978;-76
2020/12/19 10:33:01;;;;;;;41.57;34.87;;;9.10;99.90;;;;;;5121953;27;20488;-77
2020/12/19 10:35:28;;;;;;;40.83;35.00;;;9.20;99.90;;;;;;5122029;27;20464;-79
2020/12/19 10:37:54;;;;;;;34.97;31.30;;;9.30;99.90;;;;;;5127819;27;20540;-78
2020/12/19 10:40:21;;;;;;;37.30;33.13;;;9.40;99.90;;;;;;5123921;27;20451;-76
2020/12/19 10:42:48;;;;;;;38.03;34.03;;;9.50;99.90;;;;;;5118978;27;20463;-76
2020/12/19 10:45:14;;;;;;;37.70;33.77;;;9.50;99.90;;;;;;5120994;27;21006;-77
2020/12/19 10:47:41;;;;;;;37.93;34.13;;;9.60;99.90;;;;;;5116320;27;20468;-76
2020/12/19 10:50:08;;;;;;;39.73;33.83;;;9.70;99.90;;;;;;5122310;27;20473;-76
2020/12/19 10:52:35;;;;;;;43.80;33.23;;;9.80;99.90;;;;;;5116680;27;20541;-79
2020/12/19 10:55:02;;;;;;;36.87;32.80;;;9.90;99.90;;;;;;5120251;27;20472;-77
2020/12/19 10:57:28;;;;;;;40.60;32.87;;;9.90;99.90;;;;;;5126231;27;20520;-76
2020/12/19 10:59:55;;;;;;;37.87;33.70;;;10.00;99.90;;;;;;5121513;27;20492;-81
2020/12/19 11:02:22;;;;;;;36.23;32.37;;;10.10;99.90;;;;;;5119934;27;20464;-79
2020/12/19 11:04:50;;;;;;;36.70;32.80;;;10.40;99.90;;;;;;5121385;27;20474;-78
2020/12/19 11:07:18;;;;;;;32.50;29.20;;;10.50;99.90;;;;;;5122658;27;20456;-76
2020/12/19 11:09:44;;;;;;;34.07;30.67;;;10.60;99.90;;;;;;5126044;27;20488;-76
2020/12/19 11:12:10;;;;;;;33.33;29.83;;;10.70;99.90;;;;;;5119842;27;20482;-76
2020/12/19 11:14:37;;;;;;;33.27;29.90;;;10.80;99.90;;;;;;5119371;27;20498;-79
2020/12/19 11:17:03;;;;;;;31.63;28.20;;;11.00;99.90;;;;;;5124494;27;20460;-76
2020/12/19 11:19:32;;;;;;;32.33;29.20;;;11.00;99.90;;;;;;5118421;27;20497;-76
2020/12/19 11:21:59;;;;;;;31.70;28.57;;;11.10;99.90;;;;;;5122683;27;20473;-79
2020/12/19 11:24:26;;;;;;;31.00;27.47;;;11.20;99.90;;;;;;5116789;27;20467;-76
2020/12/19 11:26:52;;;;;;;30.17;27.40;;;11.40;99.90;;;;;;5114177;27;20492;-75
2020/12/19 11:29:18;;;;;;;29.57;27.13;;;11.60;99.90;;;;;;5123632;27;20460;-80
2020/12/19 11:31:45;;;;;;;31.37;26.57;;;11.60;99.90;;;;;;5116310;27;20465;-76
2020/12/19 11:34:12;;;;;;;28.50;25.57;;;11.80;99.90;;;;;;5121225;27;20480;-77
2020/12/19 11:36:39;;;;;;;29.40;25.13;;;12.00;99.90;;;;;;5119121;27;20544;-76
2020/12/19 11:39:11;;;;;;;26.50;23.77;;;12.20;99.90;;;;;;5117959;27;20457;-76
2020/12/19 11:41:38;;;;;;;24.47;22.53;;;12.50;99.90;;;;;;5124274;27;20452;-77
2020/12/19 11:44:05;;;;;;;24.00;21.60;;;13.00;99.90;;;;;;5119112;27;20973;-77
2020/12/19 11:46:32;;;;;;;22.37;20.37;;;13.40;99.90;;;;;;5117577;27;20491;-76
2020/12/19 11:48:59;;;;;;;21.17;19.70;;;13.90;99.90;;;;;;5119676;27;20461;-77
2020/12/19 11:51:28;;;;;;;21.17;19.40;;;14.20;99.90;;;;;;5120445;27;20457;-79
2020/12/19 11:53:55;;;;;;;19.63;18.23;;;14.40;99.90;;;;;;5123063;27;20455;-76
2020/12/19 11:56:22;;;;;;;18.43;17.23;;;14.50;99.90;;;;;;5129130;27;20452;-76
2020/12/19 11:58:49;;;;;;;17.47;16.33;;;14.60;99.90;;;;;;5116459;27;20538;-78
2020/12/19 12:01:15;;;;;;;18.07;16.50;;;14.60;99.90;;;;;;5118066;27;20464;-77
2020/12/19 12:03:41;;;;;;;17.23;15.80;;;14.30;99.90;;;;;;5122513;27;20461;-76
2020/12/19 12:06:08;;;;;;;18.30;17.00;;;14.00;99.90;;;;;;5124095;27;20504;-76
2020/12/19 12:08:34;;;;;;;18.10;16.50;;;13.40;99.90;;;;;;5123787;27;20887;-76
2020/12/19 12:11:01;;;;;;;17.43;16.23;;;13.10;99.90;;;;;;5121335;27;20518;-77
2020/12/19 12:13:28;;;;;;;17.10;15.80;;;12.90;99.90;;;;;;5119276;27;21001;-76
2020/12/19 12:15:54;;;;;;;17.30;15.90;;;12.70;99.90;;;;;;5119165;27;20453;-76
2020/12/19 12:18:21;;;;;;;17.83;16.40;;;12.70;99.90;;;;;;5116732;27;20465;-77
2020/12/19 12:20:48;;;;;;;16.73;15.73;;;12.70;99.90;;;;;;5124121;27;20479;-76
2020/12/19 12:23:14;;;;;;;16.90;15.80;;;12.60;99.90;;;;;;5116032;27;20465;-75
2020/12/19 12:25:41;;;;;;;15.63;14.53;;;12.60;99.90;;;;;;5120342;27;20575;-75
2020/12/19 12:28:08;;;;;;;15.17;14.27;;;12.70;99.90;;;;;;5114895;27;20543;-77
2020/12/19 12:30:35;;;;;;;15.30;14.30;;;12.70;99.90;;;;;;5116373;27;20530;-75
2020/12/19 12:33:01;;;;;;;15.00;14.00;;;12.70;99.90;;;;;;5118430;27;21034;-74
2020/12/19 12:35:27;;;;;;;15.03;14.03;;;12.70;99.90;;;;;;5113963;27;20559;-76
2020/12/19 12:37:54;;;;;;;15.13;13.93;;;12.60;99.90;;;;;;5120249;27;20502;-75
2020/12/19 12:40:20;;;;;;;15.80;14.70;;;12.60;99.90;;;;;;5119168;27;20967;-76